メインページ
METAR-TAF:

METAR-TAF

空港 :

ニューヨーク / ラガーディア, ニューヨーク, アメリカ合衆国

ラガーディア空港

緯度: 40-46-45N, 経度: 073-52-48W, 海抜: 6m

現時点の気象観測

当レポートは10分前の11:51(UTC)に作成
北東の風 5kt
気温 11°C
湿度 54%
気圧 1020 hPa
視程: 16.1km
高度9000ftの雲はほとんどない
高度19000ftの雲は散在している
高度25000ftの雲は散在している

METAR: KLGA 231151Z 04005KT 10SM FEW090 SCT190 SCT250 11/02 A3012 RMK AO2 SLP199 70007 T01060017 10106 20089 53024 $

時間: 08:01 (12:01 UTC)

予報

当レポートは41分前の11:20(UTC)に作成
予報は23日の 12時(UTC)から 24日の 12時(UTC)まで有効
北/北東の風 7kt
視程: 10km
高度25000ftの雲はほとんどない
23日の 1400時(UTC)から
北東の風 7kt
視程: 10km
高度25000ftの雲はほとんどない
23日の 2000時(UTC)から
の風 9kt
視程: 10km
高度25000ftの雲は散在している
24日の 0200時(UTC)から
の風 5kt
視程: 10km
高度25000ftの千切れ雲あり
24日の 0900時(UTC)から
南東の風 4kt
視程: 10km
高度20000ftの千切れ雲あり

TAF: KLGA 231120Z 2312/2412 02007KT P6SM FEW250 FM231400 05007KT P6SM FEW250 FM232000 17009KT P6SM SCT250 FM240200 19005KT P6SM BKN250 FM240900 13004KT P6SM BKN200

4,000以上の空港の気象観測と天気予報(METAR報とTAF報)

利用可能な観測所は地図上に黄色い丸と赤い丸で示す。

丸の上にカーソルを重ねると観測所名を参照できる。

次にクリックすると気象観測と天気予報を参照できる。

マップの切り替え:黒色「×」印の緑ボタンをクリックして拡大、「-」印の緑ボタンをクリックして縮小、緑色の三角印をクリックして隣りの地図に切り替え


METAR-TAF: